EGPI/ILY METAR and TAF weather

Enter ICAO airport designator
Station Type Date Time Source
EGPI METAR 2019/06/17 13:20 UTC NOAA

EGPI 171320Z 24016KT 210V270 9999 FEW022 SCT034 BKN041 14/11 Q1007


Station Type Date Time Source
EGPI Decoded METAR 2019/06/17 13:20 UTC NOAA

Islay, United Kingdom (EGPI) 55-40-55N 006-15-24W
Jun 17, 2019 - 09:20 AM EDT / 2019.06.17 1320 UTC
Wind: from the WSW (240 degrees) at 18 MPH (16 KT) (direction variable):0
Visibility: greater than 7 mile(s):0
Sky conditions: mostly cloudy
Temperature: 57 F (14 C)
Dew Point: 51 F (11 C)
Relative Humidity: 82%
Pressure (altimeter): 29.74 in. Hg (1007 hPa)
ob: EGPI 171320Z 24016KT 210V270 9999 FEW022 SCT034 BKN041 14/11 Q1007
cycle: 13

Station Type Date Time Source
EGPI TAF UTC NOAA

Error!

Example: see airport list